sensor_id;sensor_type;location;lat;lon;timestamp;pressure;altitude;pressure_sealevel;temperature;humidity
69593;BME280;56796;50.122;14.468;2023-08-07T00:08:47;968.58;;;13.33;100
69593;BME280;56796;50.122;14.468;2023-08-07T00:28:13;968.49;;;13.29;100
69593;BME280;56796;50.122;14.468;2023-08-07T00:47:39;968.45;;;13.35;100
69593;BME280;56796;50.122;14.468;2023-08-07T01:07:07;968.55;;;13.39;100
69593;BME280;56796;50.122;14.468;2023-08-07T01:26:33;968.56;;;13.35;100
69593;BME280;56796;50.122;14.468;2023-08-07T01:46:01;968.83;;;13.4;100
69593;BME280;56796;50.122;14.468;2023-08-07T02:05:28;968.93;;;13.33;100
69593;BME280;56796;50.122;14.468;2023-08-07T02:24:54;968.95;;;13.22;100
69593;BME280;56796;50.122;14.468;2023-08-07T02:44:20;968.94;;;13.1;100
69593;BME280;56796;50.122;14.468;2023-08-07T03:03:46;969.07;;;12.98;100
69593;BME280;56796;50.122;14.468;2023-08-07T03:23:13;969.11;;;12.94;100
69593;BME280;56796;50.122;14.468;2023-08-07T03:42:39;969.19;;;12.9;100
69593;BME280;56796;50.122;14.468;2023-08-07T04:02:05;969.3;;;12.89;100
69593;BME280;56796;50.122;14.468;2023-08-07T04:21:32;969.5;;;12.9;100
69593;BME280;56796;50.122;14.468;2023-08-07T04:40:59;969.52;;;12.89;100
69593;BME280;56796;50.122;14.468;2023-08-07T05:00:26;969.58;;;12.95;100
69593;BME280;56796;50.122;14.468;2023-08-07T05:19:52;969.83;;;13.1;100
69593;BME280;56796;50.122;14.468;2023-08-07T05:39:19;970.05;;;13.24;100
69593;BME280;56796;50.122;14.468;2023-08-07T05:58:46;970.3;;;13.67;100
69593;BME280;56796;50.122;14.468;2023-08-07T06:18:15;970.45;;;14.01;100
69593;BME280;56796;50.122;14.468;2023-08-07T06:37:42;970.67;;;14.25;100
69593;BME280;56796;50.122;14.468;2023-08-07T06:57:09;970.8;;;14.7;100
69593;BME280;56796;50.122;14.468;2023-08-07T07:16:35;971.18;;;14.36;100
69593;BME280;56796;50.122;14.468;2023-08-07T07:36:03;971.46;;;14.67;100
69593;BME280;56796;50.122;14.468;2023-08-07T07:55:29;971.63;;;15.24;100
69593;BME280;56796;50.122;14.468;2023-08-07T08:15:03;971.85;;;16.42;94.28
69593;BME280;56796;50.122;14.468;2023-08-07T08:34:22;972.12;;;15.89;93.76
69593;BME280;56796;50.122;14.468;2023-08-07T08:53:51;972.31;;;16.73;86.18
69593;BME280;56796;50.122;14.468;2023-08-07T09:13:20;972.62;;;17.15;85
69593;BME280;56796;50.122;14.468;2023-08-07T09:32:48;972.79;;;17.81;80.74
69593;BME280;56796;50.122;14.468;2023-08-07T09:52:16;972.9;;;18.17;79.74
69593;BME280;56796;50.122;14.468;2023-08-07T10:11:43;973.04;;;17.86;79.69
69593;BME280;56796;50.122;14.468;2023-08-07T10:31:13;973.21;;;19.04;77.37
69593;BME280;56796;50.122;14.468;2023-08-07T11:10:12;973.14;;;19.7;73.9
69593;BME280;56796;50.122;14.468;2023-08-07T11:29:35;973.25;;;18.06;77.02
69593;BME280;56796;50.122;14.468;2023-08-07T11:49:00;973.18;;;18.45;72.45
69593;BME280;56796;50.122;14.468;2023-08-07T12:08:31;973.28;;;19.11;68.97
69593;BME280;56796;50.122;14.468;2023-08-07T12:27:58;973.5;;;19.37;68.17
69593;BME280;56796;50.122;14.468;2023-08-07T12:47:22;973.64;;;19.35;69.24
69593;BME280;56796;50.122;14.468;2023-08-07T13:06:51;973.63;;;20.04;66.32
69593;BME280;56796;50.122;14.468;2023-08-07T13:26:16;973.92;;;19.07;67.6
69593;BME280;56796;50.122;14.468;2023-08-07T13:45:41;974.06;;;18.79;68.67
69593;BME280;56796;50.122;14.468;2023-08-07T14:05:07;974.26;;;18.59;68.58
69593;BME280;56796;50.122;14.468;2023-08-07T14:24:35;974.46;;;18.99;66.17
69593;BME280;56796;50.122;14.468;2023-08-07T14:44:02;974.81;;;18.56;67.57
69593;BME280;56796;50.122;14.468;2023-08-07T15:03:28;975.04;;;19.4;66.24
69593;BME280;56796;50.122;14.468;2023-08-07T15:22:57;975.1;;;18.64;67.58
69593;BME280;56796;50.122;14.468;2023-08-07T15:42:22;975.29;;;18.15;69.61
69593;BME280;56796;50.122;14.468;2023-08-07T16:01:48;975.46;;;18.27;66.29
69593;BME280;56796;50.122;14.468;2023-08-07T16:21:12;975.41;;;16.95;71.53
69593;BME280;56796;50.122;14.468;2023-08-07T16:40:36;975.66;;;16.74;73
69593;BME280;56796;50.122;14.468;2023-08-07T17:00:02;975.86;;;16.7;73.46
69593;BME280;56796;50.122;14.468;2023-08-07T17:19:28;976.07;;;16.48;74.33
69593;BME280;56796;50.122;14.468;2023-08-07T17:38:54;976.28;;;16.01;76.45
69593;BME280;56796;50.122;14.468;2023-08-07T17:58:19;976.35;;;15.65;78.31
69593;BME280;56796;50.122;14.468;2023-08-07T18:17:44;976.77;;;15.5;79.4
69593;BME280;56796;50.122;14.468;2023-08-07T18:37:09;977.17;;;14.53;88.6
69593;BME280;56796;50.122;14.468;2023-08-07T18:56:32;977.3;;;14.15;90.49
69593;BME280;56796;50.122;14.468;2023-08-07T19:15:58;977.71;;;14.31;91.28
69593;BME280;56796;50.122;14.468;2023-08-07T19:35:24;977.82;;;14.25;90.73
69593;BME280;56796;50.122;14.468;2023-08-07T19:54:50;978.06;;;14.11;88.65
69593;BME280;56796;50.122;14.468;2023-08-07T20:14:16;978.18;;;13.75;88.02
69593;BME280;56796;50.122;14.468;2023-08-07T20:33:42;978.21;;;13.77;88.35
69593;BME280;56796;50.122;14.468;2023-08-07T20:53:09;978.3;;;13.8;87.75
69593;BME280;56796;50.122;14.468;2023-08-07T21:12:36;978.36;;;13.58;89.17
69593;BME280;56796;50.122;14.468;2023-08-07T21:32:03;978.46;;;13.42;90.47
69593;BME280;56796;50.122;14.468;2023-08-07T21:51:29;978.38;;;13.22;91.46
69593;BME280;56796;50.122;14.468;2023-08-07T22:10:56;978.42;;;13.11;91.38
69593;BME280;56796;50.122;14.468;2023-08-07T22:30:22;978.43;;;13.09;91.32
69593;BME280;56796;50.122;14.468;2023-08-07T22:49:49;978.43;;;13.13;89.77
69593;BME280;56796;50.122;14.468;2023-08-07T23:09:17;978.61;;;13.28;89.59
69593;BME280;56796;50.122;14.468;2023-08-07T23:28:44;978.63;;;13.12;90.31
69593;BME280;56796;50.122;14.468;2023-08-07T23:48:09;978.64;;;12.89;91.24
